sensor_id;sensor_type;location;lat;lon;timestamp;pressure;altitude;pressure_sealevel;temperature;humidity
74334;BME280;62753;40.394;-80.022;2023-07-08T00:00:44;96997.59;;;32.79;28.96
74334;BME280;62753;40.394;-80.022;2023-07-08T00:03:08;96997.63;;;32.64;28.54
74334;BME280;62753;40.394;-80.022;2023-07-08T00:05:34;97002.25;;;32.40;29.33
74334;BME280;62753;40.394;-80.022;2023-07-08T00:07:59;97003.21;;;32.84;28.67
74334;BME280;62753;40.394;-80.022;2023-07-08T00:10:26;97015.59;;;32.22;28.89
74334;BME280;62753;40.394;-80.022;2023-07-08T00:12:51;97013.17;;;32.58;28.37
74334;BME280;62753;40.394;-80.022;2023-07-08T00:15:15;97011.99;;;32.58;28.78
74334;BME280;62753;40.394;-80.022;2023-07-08T00:17:40;97014.48;;;32.28;28.88
74334;BME280;62753;40.394;-80.022;2023-07-08T00:20:12;97014.46;;;32.14;28.78
74334;BME280;62753;40.394;-80.022;2023-07-08T00:22:31;97016.32;;;32.11;29.19
74334;BME280;62753;40.394;-80.022;2023-07-08T00:24:56;97020.05;;;32.33;28.87
74334;BME280;62753;40.394;-80.022;2023-07-08T00:27:22;97020.72;;;31.58;29.65
74334;BME280;62753;40.394;-80.022;2023-07-08T00:29:48;97013.68;;;32.39;28.51
74334;BME280;62753;40.394;-80.022;2023-07-08T00:32:14;97013.48;;;32.32;27.94
74334;BME280;62753;40.394;-80.022;2023-07-08T00:34:39;97016.95;;;32.43;28.21
74334;BME280;62753;40.394;-80.022;2023-07-08T00:37:04;97019.03;;;32.57;27.91
74334;BME280;62753;40.394;-80.022;2023-07-08T00:39:29;97022.93;;;31.92;27.82
74334;BME280;62753;40.394;-80.022;2023-07-08T00:41:55;97028.10;;;31.67;28.43
74334;BME280;62753;40.394;-80.022;2023-07-08T00:44:21;97025.76;;;31.63;28.72
74334;BME280;62753;40.394;-80.022;2023-07-08T00:46:55;97029.74;;;31.47;29.37
74334;BME280;62753;40.394;-80.022;2023-07-08T00:49:23;97028.07;;;31.34;29.72
74334;BME280;62753;40.394;-80.022;2023-07-08T00:51:39;97027.59;;;32.15;29.16
74334;BME280;62753;40.394;-80.022;2023-07-08T00:54:02;97031.65;;;31.81;28.95
74334;BME280;62753;40.394;-80.022;2023-07-08T00:56:30;97033.26;;;31.88;28.87
74334;BME280;62753;40.394;-80.022;2023-07-08T00:58:57;97041.47;;;30.98;29.91
74334;BME280;62753;40.394;-80.022;2023-07-08T01:01:19;97039.85;;;31.21;29.61
74334;BME280;62753;40.394;-80.022;2023-07-08T01:03:49;97040.08;;;30.53;30.12
74334;BME280;62753;40.394;-80.022;2023-07-08T01:06:08;97040.12;;;30.74;30.15
74334;BME280;62753;40.394;-80.022;2023-07-08T01:08:34;97044.80;;;31.50;29.40
74334;BME280;62753;40.394;-80.022;2023-07-08T01:11:02;97046.74;;;30.82;29.46
74334;BME280;62753;40.394;-80.022;2023-07-08T01:13:25;97051.75;;;30.78;29.86
74334;BME280;62753;40.394;-80.022;2023-07-08T01:15:50;97055.45;;;31.00;29.85
74334;BME280;62753;40.394;-80.022;2023-07-08T01:18:17;97058.03;;;30.93;29.70
74334;BME280;62753;40.394;-80.022;2023-07-08T01:20:42;97062.23;;;30.88;29.59
74334;BME280;62753;40.394;-80.022;2023-07-08T01:23:07;97063.91;;;30.95;29.30
74334;BME280;62753;40.394;-80.022;2023-07-08T01:25:33;97063.19;;;31.24;29.11
74334;BME280;62753;40.394;-80.022;2023-07-08T01:27:58;97061.22;;;30.60;29.70
74334;BME280;62753;40.394;-80.022;2023-07-08T01:30:23;97062.95;;;30.23;30.00
74334;BME280;62753;40.394;-80.022;2023-07-08T01:32:51;97068.57;;;31.18;29.11
74334;BME280;62753;40.394;-80.022;2023-07-08T01:35:14;97073.91;;;31.53;28.59
74334;BME280;62753;40.394;-80.022;2023-07-08T01:37:42;97074.29;;;31.46;28.19
74334;BME280;62753;40.394;-80.022;2023-07-08T01:40:23;97074.28;;;31.62;28.82
74334;BME280;62753;40.394;-80.022;2023-07-08T01:42:31;97075.83;;;32.05;28.48
74334;BME280;62753;40.394;-80.022;2023-07-08T01:44:56;97075.53;;;31.27;28.10
74334;BME280;62753;40.394;-80.022;2023-07-08T01:47:22;97076.85;;;31.82;27.68
74334;BME280;62753;40.394;-80.022;2023-07-08T01:49:47;97075.24;;;31.96;27.58
74334;BME280;62753;40.394;-80.022;2023-07-08T01:52:13;97075.13;;;31.45;27.75
74334;BME280;62753;40.394;-80.022;2023-07-08T01:54:37;97076.45;;;31.48;27.65
74334;BME280;62753;40.394;-80.022;2023-07-08T01:57:02;97081.91;;;32.05;27.27
74334;BME280;62753;40.394;-80.022;2023-07-08T01:59:27;97091.45;;;32.00;27.16
74334;BME280;62753;40.394;-80.022;2023-07-08T02:01:53;97095.61;;;32.00;27.05
74334;BME280;62753;40.394;-80.022;2023-07-08T02:04:18;97096.02;;;32.01;26.72
74334;BME280;62753;40.394;-80.022;2023-07-08T02:06:51;97097.49;;;32.14;26.92
74334;BME280;62753;40.394;-80.022;2023-07-08T02:09:10;97103.63;;;31.53;26.93
74334;BME280;62753;40.394;-80.022;2023-07-08T02:11:35;97106.29;;;32.47;27.03
74334;BME280;62753;40.394;-80.022;2023-07-08T02:14:00;97108.65;;;32.65;25.81
74334;BME280;62753;40.394;-80.022;2023-07-08T02:16:26;97110.54;;;31.27;27.36
74334;BME280;62753;40.394;-80.022;2023-07-08T02:18:52;97115.60;;;31.76;27.33
74334;BME280;62753;40.394;-80.022;2023-07-08T02:21:16;97113.52;;;32.69;26.55
74334;BME280;62753;40.394;-80.022;2023-07-08T02:23:42;97113.89;;;31.80;26.77
74334;BME280;62753;40.394;-80.022;2023-07-08T02:26:07;97116.98;;;32.01;26.33
74334;BME280;62753;40.394;-80.022;2023-07-08T02:28:32;97118.84;;;32.01;27.10
74334;BME280;62753;40.394;-80.022;2023-07-08T02:31:02;97116.40;;;31.78;26.27
74334;BME280;62753;40.394;-80.022;2023-07-08T02:33:23;97115.70;;;31.95;26.95
74334;BME280;62753;40.394;-80.022;2023-07-08T02:35:48;97112.80;;;31.26;26.73
74334;BME280;62753;40.394;-80.022;2023-07-08T02:38:14;97111.46;;;31.01;27.15
74334;BME280;62753;40.394;-80.022;2023-07-08T02:40:39;97109.72;;;31.01;27.84
74334;BME280;62753;40.394;-80.022;2023-07-08T02:43:04;97111.46;;;31.31;27.20
74334;BME280;62753;40.394;-80.022;2023-07-08T02:45:30;97119.95;;;31.90;27.13
74334;BME280;62753;40.394;-80.022;2023-07-08T02:47:55;97122.06;;;32.18;26.42
74334;BME280;62753;40.394;-80.022;2023-07-08T02:50:21;97125.17;;;31.32;26.63
74334;BME280;62753;40.394;-80.022;2023-07-08T02:52:46;97122.61;;;30.72;27.63
74334;BME280;62753;40.394;-80.022;2023-07-08T02:55:12;97122.83;;;31.32;27.05
74334;BME280;62753;40.394;-80.022;2023-07-08T02:57:38;97129.09;;;31.84;26.52
74334;BME280;62753;40.394;-80.022;2023-07-08T03:00:04;97127.86;;;31.83;26.51
74334;BME280;62753;40.394;-80.022;2023-07-08T03:02:28;97131.80;;;31.92;25.71
74334;BME280;62753;40.394;-80.022;2023-07-08T03:04:54;97133.07;;;31.38;26.48
74334;BME280;62753;40.394;-80.022;2023-07-08T03:07:19;97129.81;;;31.44;27.27
74334;BME280;62753;40.394;-80.022;2023-07-08T03:09:45;97128.18;;;31.65;26.75
74334;BME280;62753;40.394;-80.022;2023-07-08T03:12:11;97128.24;;;31.64;26.17
74334;BME280;62753;40.394;-80.022;2023-07-08T03:14:36;97125.85;;;30.80;27.55
74334;BME280;62753;40.394;-80.022;2023-07-08T03:17:02;97128.57;;;30.49;28.38
74334;BME280;62753;40.394;-80.022;2023-07-08T03:19:27;97125.52;;;30.61;27.84
74334;BME280;62753;40.394;-80.022;2023-07-08T03:21:52;97122.48;;;30.08;28.66
74334;BME280;62753;40.394;-80.022;2023-07-08T03:24:18;97120.82;;;30.08;28.55
74334;BME280;62753;40.394;-80.022;2023-07-08T03:26:42;97124.48;;;30.53;28.00
74334;BME280;62753;40.394;-80.022;2023-07-08T03:29:13;97134.13;;;31.16;27.21
74334;BME280;62753;40.394;-80.022;2023-07-08T03:31:34;97144.38;;;31.08;26.90
74334;BME280;62753;40.394;-80.022;2023-07-08T03:33:59;97146.84;;;30.30;27.69
74334;BME280;62753;40.394;-80.022;2023-07-08T03:36:24;97146.93;;;30.10;27.92
74334;BME280;62753;40.394;-80.022;2023-07-08T03:38:51;97155.81;;;30.87;27.48
74334;BME280;62753;40.394;-80.022;2023-07-08T03:41:16;97158.24;;;30.68;27.64
74334;BME280;62753;40.394;-80.022;2023-07-08T03:43:42;97155.30;;;30.69;27.33
74334;BME280;62753;40.394;-80.022;2023-07-08T03:46:10;97155.98;;;30.68;26.97
74334;BME280;62753;40.394;-80.022;2023-07-08T03:48:33;97157.26;;;30.81;27.40
74334;BME280;62753;40.394;-80.022;2023-07-08T03:50:59;97154.33;;;30.93;26.88
74334;BME280;62753;40.394;-80.022;2023-07-08T03:53:24;97146.84;;;31.06;27.29
74334;BME280;62753;40.394;-80.022;2023-07-08T03:55:48;97146.41;;;31.09;27.10
74334;BME280;62753;40.394;-80.022;2023-07-08T03:58:15;97149.61;;;30.11;27.64
74334;BME280;62753;40.394;-80.022;2023-07-08T04:00:39;97154.02;;;30.28;27.47
74334;BME280;62753;40.394;-80.022;2023-07-08T04:03:04;97160.74;;;30.60;27.49
74334;BME280;62753;40.394;-80.022;2023-07-08T04:05:30;97162.77;;;29.73;28.38
74334;BME280;62753;40.394;-80.022;2023-07-08T04:07:55;97162.40;;;29.33;28.11
74334;BME280;62753;40.394;-80.022;2023-07-08T04:10:21;97162.84;;;29.91;27.97
74334;BME280;62753;40.394;-80.022;2023-07-08T04:12:47;97159.92;;;29.37;28.25
74334;BME280;62753;40.394;-80.022;2023-07-08T04:15:12;97160.33;;;29.72;28.52
74334;BME280;62753;40.394;-80.022;2023-07-08T04:17:41;97159.62;;;29.34;28.88
74334;BME280;62753;40.394;-80.022;2023-07-08T04:20:03;97159.82;;;28.99;29.21
74334;BME280;62753;40.394;-80.022;2023-07-08T04:22:28;97159.80;;;29.57;28.42
74334;BME280;62753;40.394;-80.022;2023-07-08T04:24:54;97158.26;;;29.75;27.70
74334;BME280;62753;40.394;-80.022;2023-07-08T04:27:19;97158.14;;;28.71;28.55
74334;BME280;62753;40.394;-80.022;2023-07-08T04:29:45;97163.46;;;28.84;28.84
74334;BME280;62753;40.394;-80.022;2023-07-08T04:32:10;97165.25;;;29.25;28.12
74334;BME280;62753;40.394;-80.022;2023-07-08T04:34:35;97165.86;;;29.13;28.53
74334;BME280;62753;40.394;-80.022;2023-07-08T04:37:00;97169.62;;;29.09;28.34
74334;BME280;62753;40.394;-80.022;2023-07-08T04:39:26;97177.17;;;29.52;27.75
74334;BME280;62753;40.394;-80.022;2023-07-08T04:41:52;97182.73;;;29.32;27.98
74334;BME280;62753;40.394;-80.022;2023-07-08T04:44:17;97185.05;;;29.47;28.01
74334;BME280;62753;40.394;-80.022;2023-07-08T04:46:46;97186.99;;;29.97;27.55
74334;BME280;62753;40.394;-80.022;2023-07-08T04:49:08;97187.77;;;28.96;27.98
74334;BME280;62753;40.394;-80.022;2023-07-08T04:51:33;97188.35;;;29.51;27.39
74334;BME280;62753;40.394;-80.022;2023-07-08T04:53:58;97184.64;;;29.86;27.35
74334;BME280;62753;40.394;-80.022;2023-07-08T04:56:27;97181.51;;;30.09;26.69
74334;BME280;62753;40.394;-80.022;2023-07-08T04:58:49;97183.58;;;29.84;27.57
74334;BME280;62753;40.394;-80.022;2023-07-08T05:01:14;97186.94;;;29.44;27.31
74334;BME280;62753;40.394;-80.022;2023-07-08T05:03:40;97184.39;;;29.82;26.90
74334;BME280;62753;40.394;-80.022;2023-07-08T05:06:05;97183.28;;;29.89;26.80
74334;BME280;62753;40.394;-80.022;2023-07-08T05:08:30;97184.37;;;30.27;26.70
74334;BME280;62753;40.394;-80.022;2023-07-08T05:10:56;97185.34;;;29.42;27.24
74334;BME280;62753;40.394;-80.022;2023-07-08T05:13:21;97186.77;;;29.89;26.96
74334;BME280;62753;40.394;-80.022;2023-07-08T05:15:48;97185.48;;;30.20;26.63
74334;BME280;62753;40.394;-80.022;2023-07-08T05:18:11;97176.59;;;29.77;26.76
74334;BME280;62753;40.394;-80.022;2023-07-08T05:20:37;97171.04;;;29.31;27.00
74334;BME280;62753;40.394;-80.022;2023-07-08T05:23:03;97170.34;;;29.26;27.69
74334;BME280;62753;40.394;-80.022;2023-07-08T05:25:31;97169.83;;;29.43;27.33
74334;BME280;62753;40.394;-80.022;2023-07-08T05:27:54;97167.76;;;29.43;27.25
74334;BME280;62753;40.394;-80.022;2023-07-08T05:30:19;97167.35;;;29.01;27.31
74334;BME280;62753;40.394;-80.022;2023-07-08T05:32:45;97159.78;;;29.08;28.18
74334;BME280;62753;40.394;-80.022;2023-07-08T05:35:10;97156.59;;;29.33;27.57
74334;BME280;62753;40.394;-80.022;2023-07-08T05:37:36;97152.74;;;29.50;27.75
74334;BME280;62753;40.394;-80.022;2023-07-08T05:40:02;97149.43;;;29.09;27.90
74334;BME280;62753;40.394;-80.022;2023-07-08T05:42:27;97143.88;;;29.02;27.91
74334;BME280;62753;40.394;-80.022;2023-07-08T05:44:51;97141.43;;;29.15;27.91
74334;BME280;62753;40.394;-80.022;2023-07-08T05:47:17;97139.02;;;29.24;27.56
74334;BME280;62753;40.394;-80.022;2023-07-08T05:49:42;97137.85;;;29.00;27.81
74334;BME280;62753;40.394;-80.022;2023-07-08T05:52:08;97134.14;;;28.92;28.94
74334;BME280;62753;40.394;-80.022;2023-07-08T05:54:33;97133.26;;;28.71;28.09
74334;BME280;62753;40.394;-80.022;2023-07-08T05:56:58;97126.88;;;28.89;28.04
74334;BME280;62753;40.394;-80.022;2023-07-08T05:59:24;97122.28;;;28.84;27.61
74334;BME280;62753;40.394;-80.022;2023-07-08T06:01:49;97116.36;;;28.74;28.12
74334;BME280;62753;40.394;-80.022;2023-07-08T06:04:14;97110.84;;;29.42;27.83
74334;BME280;62753;40.394;-80.022;2023-07-08T06:06:39;97105.95;;;29.12;27.62
74334;BME280;62753;40.394;-80.022;2023-07-08T06:09:05;97104.42;;;29.32;27.58
74334;BME280;62753;40.394;-80.022;2023-07-08T06:11:30;97104.31;;;29.67;27.34
74334;BME280;62753;40.394;-80.022;2023-07-08T06:13:55;97102.55;;;29.71;27.46
74334;BME280;62753;40.394;-80.022;2023-07-08T06:16:21;97099.77;;;29.47;27.60
74334;BME280;62753;40.394;-80.022;2023-07-08T06:18:45;97102.20;;;29.08;27.92
74334;BME280;62753;40.394;-80.022;2023-07-08T06:21:11;97103.47;;;28.91;27.79
74334;BME280;62753;40.394;-80.022;2023-07-08T06:23:37;97104.24;;;28.66;28.38
74334;BME280;62753;40.394;-80.022;2023-07-08T06:26:02;97102.43;;;29.17;27.89
74334;BME280;62753;40.394;-80.022;2023-07-08T06:28:28;97106.12;;;29.36;27.54
74334;BME280;62753;40.394;-80.022;2023-07-08T06:30:53;97104.76;;;29.33;27.51
74334;BME280;62753;40.394;-80.022;2023-07-08T06:33:18;97101.03;;;29.14;27.92
74334;BME280;62753;40.394;-80.022;2023-07-08T06:35:45;97104.38;;;28.55;28.18
74334;BME280;62753;40.394;-80.022;2023-07-08T06:38:10;97107.95;;;29.07;28.25
74334;BME280;62753;40.394;-80.022;2023-07-08T06:40:35;97108.84;;;29.15;28.14
74334;BME280;62753;40.394;-80.022;2023-07-08T06:43:03;97108.37;;;29.32;27.82
74334;BME280;62753;40.394;-80.022;2023-07-08T06:45:26;97105.72;;;28.98;28.05
74334;BME280;62753;40.394;-80.022;2023-07-08T06:47:51;97106.86;;;28.66;28.46
74334;BME280;62753;40.394;-80.022;2023-07-08T06:50:17;97108.43;;;29.03;28.15
74334;BME280;62753;40.394;-80.022;2023-07-08T06:52:43;97105.16;;;28.85;28.12
74334;BME280;62753;40.394;-80.022;2023-07-08T06:55:09;97110.00;;;28.70;28.50
74334;BME280;62753;40.394;-80.022;2023-07-08T06:57:33;97110.76;;;29.04;28.14
74334;BME280;62753;40.394;-80.022;2023-07-08T06:59:58;97108.62;;;27.89;30.57
74334;BME280;62753;40.394;-80.022;2023-07-08T07:02:24;97102.30;;;27.47;30.96
74334;BME280;62753;40.394;-80.022;2023-07-08T07:04:49;97093.24;;;27.69;30.46
74334;BME280;62753;40.394;-80.022;2023-07-08T07:07:14;97102.06;;;28.00;30.29
74334;BME280;62753;40.394;-80.022;2023-07-08T07:09:39;97110.27;;;27.88;29.97
74334;BME280;62753;40.394;-80.022;2023-07-08T07:12:07;97112.23;;;28.04;29.84
74334;BME280;62753;40.394;-80.022;2023-07-08T07:14:31;97115.65;;;28.54;29.60
74334;BME280;62753;40.394;-80.022;2023-07-08T07:16:57;97114.58;;;28.16;29.75
74334;BME280;62753;40.394;-80.022;2023-07-08T07:19:22;97113.66;;;27.35;30.88
74334;BME280;62753;40.394;-80.022;2023-07-08T07:21:48;97116.94;;;26.99;31.14
74334;BME280;62753;40.394;-80.022;2023-07-08T07:24:14;97118.99;;;27.50;30.74
74334;BME280;62753;40.394;-80.022;2023-07-08T07:26:39;97116.32;;;27.84;30.73
74334;BME280;62753;40.394;-80.022;2023-07-08T07:29:03;97114.54;;;27.85;30.36
74334;BME280;62753;40.394;-80.022;2023-07-08T07:31:29;97114.14;;;28.32;29.95
74334;BME280;62753;40.394;-80.022;2023-07-08T07:33:54;97110.28;;;27.98;30.03
74334;BME280;62753;40.394;-80.022;2023-07-08T07:36:20;97107.89;;;28.49;29.69
74334;BME280;62753;40.394;-80.022;2023-07-08T07:38:46;97106.20;;;28.44;29.57
74334;BME280;62753;40.394;-80.022;2023-07-08T07:41:10;97118.42;;;27.78;30.20
74334;BME280;62753;40.394;-80.022;2023-07-08T07:43:36;97121.70;;;28.04;29.99
74334;BME280;62753;40.394;-80.022;2023-07-08T07:46:02;97123.46;;;28.31;29.61
74334;BME280;62753;40.394;-80.022;2023-07-08T07:48:27;97129.51;;;28.05;30.53
74334;BME280;62753;40.394;-80.022;2023-07-08T07:50:52;97130.18;;;27.76;30.50
74334;BME280;62753;40.394;-80.022;2023-07-08T07:53:18;97121.86;;;27.71;30.34
74334;BME280;62753;40.394;-80.022;2023-07-08T07:55:44;97118.77;;;27.58;30.95
74334;BME280;62753;40.394;-80.022;2023-07-08T07:58:10;97121.72;;;28.01;30.36
74334;BME280;62753;40.394;-80.022;2023-07-08T08:00:35;97126.41;;;27.93;30.57
74334;BME280;62753;40.394;-80.022;2023-07-08T08:03:01;97128.74;;;27.75;30.55
74334;BME280;62753;40.394;-80.022;2023-07-08T08:05:26;97129.55;;;27.61;30.51
74334;BME280;62753;40.394;-80.022;2023-07-08T08:07:51;97127.52;;;28.26;30.15
74334;BME280;62753;40.394;-80.022;2023-07-08T08:10:16;97130.66;;;28.06;30.29
74334;BME280;62753;40.394;-80.022;2023-07-08T08:12:41;97129.25;;;27.94;30.60
74334;BME280;62753;40.394;-80.022;2023-07-08T08:15:07;97131.26;;;28.08;30.26
74334;BME280;62753;40.394;-80.022;2023-07-08T08:17:33;97130.39;;;28.25;30.67
74334;BME280;62753;40.394;-80.022;2023-07-08T08:19:59;97127.31;;;27.62;30.45
74334;BME280;62753;40.394;-80.022;2023-07-08T08:22:24;97128.74;;;28.02;29.65
74334;BME280;62753;40.394;-80.022;2023-07-08T08:24:49;97126.56;;;28.15;29.93
74334;BME280;62753;40.394;-80.022;2023-07-08T08:27:14;97127.76;;;27.79;30.23
74334;BME280;62753;40.394;-80.022;2023-07-08T08:29:39;97131.07;;;28.40;29.78
74334;BME280;62753;40.394;-80.022;2023-07-08T08:32:06;97127.37;;;27.87;30.24
74334;BME280;62753;40.394;-80.022;2023-07-08T08:34:30;97126.16;;;28.02;30.24
74334;BME280;62753;40.394;-80.022;2023-07-08T08:36:56;97126.95;;;28.23;30.25
74334;BME280;62753;40.394;-80.022;2023-07-08T08:39:21;97125.05;;;27.95;30.53
74334;BME280;62753;40.394;-80.022;2023-07-08T08:41:47;97131.56;;;28.42;30.19
74334;BME280;62753;40.394;-80.022;2023-07-08T08:44:15;97146.24;;;27.73;30.69
74334;BME280;62753;40.394;-80.022;2023-07-08T08:46:41;97147.03;;;27.96;30.22
74334;BME280;62753;40.394;-80.022;2023-07-08T08:49:08;97143.84;;;27.87;30.00
74334;BME280;62753;40.394;-80.022;2023-07-08T08:51:31;97142.52;;;28.06;30.02
74334;BME280;62753;40.394;-80.022;2023-07-08T08:53:56;97143.72;;;27.94;30.30
74334;BME280;62753;40.394;-80.022;2023-07-08T08:56:22;97140.12;;;28.45;30.29
74334;BME280;62753;40.394;-80.022;2023-07-08T08:58:49;97139.05;;;28.68;29.78
74334;BME280;62753;40.394;-80.022;2023-07-08T09:01:12;97138.76;;;27.99;30.21
74334;BME280;62753;40.394;-80.022;2023-07-08T09:03:43;97134.06;;;28.13;30.10
74334;BME280;62753;40.394;-80.022;2023-07-08T09:06:04;97135.66;;;27.92;30.48
74334;BME280;62753;40.394;-80.022;2023-07-08T09:08:33;97141.31;;;28.02;30.38
74334;BME280;62753;40.394;-80.022;2023-07-08T09:10:57;97139.82;;;27.47;30.97
74334;BME280;62753;40.394;-80.022;2023-07-08T09:13:24;97137.25;;;27.87;30.67
74334;BME280;62753;40.394;-80.022;2023-07-08T09:15:43;97138.31;;;27.50;30.94
74334;BME280;62753;40.394;-80.022;2023-07-08T09:18:18;97135.03;;;27.42;31.05
74334;BME280;62753;40.394;-80.022;2023-07-08T09:20:33;97135.77;;;27.49;30.86
74334;BME280;62753;40.394;-80.022;2023-07-08T09:23:04;97135.20;;;27.49;30.84
74334;BME280;62753;40.394;-80.022;2023-07-08T09:25:28;97127.82;;;27.56;31.06
74334;BME280;62753;40.394;-80.022;2023-07-08T09:27:49;97127.94;;;27.95;30.76
74334;BME280;62753;40.394;-80.022;2023-07-08T09:30:16;97131.98;;;27.48;31.04
74334;BME280;62753;40.394;-80.022;2023-07-08T09:32:40;97133.47;;;27.80;30.70
74334;BME280;62753;40.394;-80.022;2023-07-08T09:35:08;97130.61;;;27.58;31.00
74334;BME280;62753;40.394;-80.022;2023-07-08T09:37:32;97125.47;;;27.34;30.96
74334;BME280;62753;40.394;-80.022;2023-07-08T09:39:58;97122.98;;;27.43;30.83
74334;BME280;62753;40.394;-80.022;2023-07-08T09:42:24;97117.85;;;27.44;30.82
74334;BME280;62753;40.394;-80.022;2023-07-08T09:44:47;97116.88;;;27.26;31.02
74334;BME280;62753;40.394;-80.022;2023-07-08T09:47:20;97112.69;;;27.01;31.49
74334;BME280;62753;40.394;-80.022;2023-07-08T09:49:38;97105.46;;;27.77;30.71
74334;BME280;62753;40.394;-80.022;2023-07-08T09:52:05;97112.49;;;27.08;30.98
74334;BME280;62753;40.394;-80.022;2023-07-08T09:54:28;97112.00;;;27.75;30.82
74334;BME280;62753;40.394;-80.022;2023-07-08T09:56:58;97105.24;;;27.13;31.29
74334;BME280;62753;40.394;-80.022;2023-07-08T09:59:21;97101.73;;;26.89;31.73
74334;BME280;62753;40.394;-80.022;2023-07-08T10:01:44;97099.71;;;26.95;32.24
74334;BME280;62753;40.394;-80.022;2023-07-08T10:04:09;97093.98;;;26.78;32.37
74334;BME280;62753;40.394;-80.022;2023-07-08T10:06:35;97085.15;;;26.06;33.37
74334;BME280;62753;40.394;-80.022;2023-07-08T10:09:02;97081.34;;;26.83;32.83
74334;BME280;62753;40.394;-80.022;2023-07-08T10:11:27;97089.66;;;26.87;32.67
74334;BME280;62753;40.394;-80.022;2023-07-08T10:13:53;97103.52;;;26.92;32.43
74334;BME280;62753;40.394;-80.022;2023-07-08T10:16:23;97105.33;;;27.35;31.88
74334;BME280;62753;40.394;-80.022;2023-07-08T10:18:42;97103.80;;;27.52;31.47
74334;BME280;62753;40.394;-80.022;2023-07-08T10:21:11;97112.55;;;27.48;32.00
74334;BME280;62753;40.394;-80.022;2023-07-08T10:23:41;97115.21;;;27.39;31.73
74334;BME280;62753;40.394;-80.022;2023-07-08T10:26:03;97109.53;;;27.30;31.60
74334;BME280;62753;40.394;-80.022;2023-07-08T10:28:33;97104.42;;;27.10;31.91
74334;BME280;62753;40.394;-80.022;2023-07-08T10:31:00;97102.73;;;27.32;31.70
74334;BME280;62753;40.394;-80.022;2023-07-08T10:35:45;97101.20;;;27.49;31.62
74334;BME280;62753;40.394;-80.022;2023-07-08T10:38:19;97104.70;;;28.27;31.20
74334;BME280;62753;40.394;-80.022;2023-07-08T10:40:39;97108.73;;;27.80;31.44
74334;BME280;62753;40.394;-80.022;2023-07-08T10:43:07;97104.47;;;27.74;31.77
74334;BME280;62753;40.394;-80.022;2023-07-08T10:45:26;97101.04;;;27.28;32.05
74334;BME280;62753;40.394;-80.022;2023-07-08T10:47:57;97101.25;;;27.22;31.87
74334;BME280;62753;40.394;-80.022;2023-07-08T10:50:24;97104.53;;;27.53;31.83
74334;BME280;62753;40.394;-80.022;2023-07-08T10:52:46;97106.56;;;27.16;31.77
74334;BME280;62753;40.394;-80.022;2023-07-08T10:55:17;97109.95;;;27.43;31.70
74334;BME280;62753;40.394;-80.022;2023-07-08T10:57:35;97111.68;;;27.29;31.89
74334;BME280;62753;40.394;-80.022;2023-07-08T10:59:57;97114.93;;;27.59;31.76
74334;BME280;62753;40.394;-80.022;2023-07-08T11:02:33;97119.79;;;27.39;31.78
74334;BME280;62753;40.394;-80.022;2023-07-08T11:04:54;97118.03;;;27.54;31.79
74334;BME280;62753;40.394;-80.022;2023-07-08T11:07:14;97116.08;;;27.29;32.32
74334;BME280;62753;40.394;-80.022;2023-07-08T11:09:39;97115.44;;;27.56;32.30
74334;BME280;62753;40.394;-80.022;2023-07-08T11:12:03;97112.37;;;27.34;31.67
74334;BME280;62753;40.394;-80.022;2023-07-08T11:14:40;97113.84;;;27.05;32.46
74334;BME280;62753;40.394;-80.022;2023-07-08T11:16:53;97118.14;;;27.33;32.79
74334;BME280;62753;40.394;-80.022;2023-07-08T11:19:19;97126.55;;;27.82;31.90
74334;BME280;62753;40.394;-80.022;2023-07-08T11:21:43;97133.01;;;27.55;31.54
74334;BME280;62753;40.394;-80.022;2023-07-08T11:24:11;97134.71;;;27.38;32.23
74334;BME280;62753;40.394;-80.022;2023-07-08T11:26:36;97134.12;;;27.14;32.20
74334;BME280;62753;40.394;-80.022;2023-07-08T11:28:58;97132.49;;;27.09;32.89
74334;BME280;62753;40.394;-80.022;2023-07-08T11:31:23;97135.10;;;27.14;32.55
74334;BME280;62753;40.394;-80.022;2023-07-08T11:33:48;97140.13;;;27.42;32.54
74334;BME280;62753;40.394;-80.022;2023-07-08T11:36:14;97142.32;;;27.62;31.86
74334;BME280;62753;40.394;-80.022;2023-07-08T11:38:47;97139.30;;;27.50;32.69
74334;BME280;62753;40.394;-80.022;2023-07-08T11:41:11;97138.07;;;27.62;32.13
74334;BME280;62753;40.394;-80.022;2023-07-08T11:43:37;97132.33;;;27.40;32.41
74334;BME280;62753;40.394;-80.022;2023-07-08T11:45:56;97122.27;;;26.22;34.09
74334;BME280;62753;40.394;-80.022;2023-07-08T11:48:25;97126.76;;;27.17;33.37
74334;BME280;62753;40.394;-80.022;2023-07-08T11:50:47;97131.95;;;26.58;33.50
74334;BME280;62753;40.394;-80.022;2023-07-08T11:53:14;97134.44;;;27.35;33.10
74334;BME280;62753;40.394;-80.022;2023-07-08T11:55:43;97138.62;;;26.84;33.69
74334;BME280;62753;40.394;-80.022;2023-07-08T11:58:07;97145.78;;;26.46;33.71
74334;BME280;62753;40.394;-80.022;2023-07-08T12:00:31;97152.97;;;27.12;34.08
74334;BME280;62753;40.394;-80.022;2023-07-08T12:02:57;97151.87;;;26.74;33.88
74334;BME280;62753;40.394;-80.022;2023-07-08T12:05:31;97151.39;;;26.46;34.78
74334;BME280;62753;40.394;-80.022;2023-07-08T12:07:47;97149.30;;;26.67;34.33
74334;BME280;62753;40.394;-80.022;2023-07-08T12:10:15;97152.35;;;26.78;34.20
74334;BME280;62753;40.394;-80.022;2023-07-08T12:12:37;97151.73;;;27.06;33.30
74334;BME280;62753;40.394;-80.022;2023-07-08T12:15:09;97155.52;;;27.36;33.74
74334;BME280;62753;40.394;-80.022;2023-07-08T12:17:27;97157.40;;;27.35;34.23
74334;BME280;62753;40.394;-80.022;2023-07-08T12:19:52;97152.61;;;26.62;34.37
74334;BME280;62753;40.394;-80.022;2023-07-08T12:22:18;97149.93;;;26.66;33.99
74334;BME280;62753;40.394;-80.022;2023-07-08T12:24:42;97156.89;;;27.39;33.98
74334;BME280;62753;40.394;-80.022;2023-07-08T12:27:10;97157.69;;;27.36;32.59
74334;BME280;62753;40.394;-80.022;2023-07-08T12:29:33;97159.96;;;27.74;32.67
74334;BME280;62753;40.394;-80.022;2023-07-08T12:31:58;97158.81;;;28.11;32.42